Time;durP1;ratioP1;P1;durP2;ratioP2;P2;SDS_P1;SDS_P2;PMS_P1;PMS_P2;Temp;Humidity;BMP_temperature;BMP_pressure;BME280_temperature;BME280_humidity;BME280_pressure;Samples;Min_cycle;Max_cycle;Signal;HPM_P1;HPM_P2
2023/07/10 00:01:28;;;;;;;26.38;18.98;;;;;;;;;;5029955;28;20063;-81
2023/07/10 00:03:54;;;;;;;25.70;18.30;;;;;;;;;;5029159;28;20025;-82
2023/07/10 00:06:20;;;;;;;25.95;17.13;;;;;;;;;;5026531;28;20080;-80
2023/07/10 00:08:47;;;;;;;27.10;16.35;;;;;;;;;;5047493;28;20075;-84
2023/07/10 00:11:22;;;;;;;21.17;14.80;;;;;;;;;;5030405;28;20066;-82
2023/07/10 00:13:49;;;;;;;20.65;14.43;;;;;;;;;;5029946;28;20030;-81
2023/07/10 00:16:18;;;;;;;25.08;13.98;;;;;;;;;;5028719;28;20691;-78
2023/07/10 00:18:46;;;;;;;21.05;13.18;;;;;;;;;;5037437;28;20049;-79
2023/07/10 00:21:13;;;;;;;18.65;12.95;;;;;;;;;;5044630;28;20021;-82
2023/07/10 00:23:39;;;;;;;21.88;13.68;;;;;;;;;;5026535;28;20083;-81
2023/07/10 00:26:25;;;;;;;25.08;13.55;;;;;;;;;;5025593;28;20033;-82
2023/07/10 00:28:55;;;;;;;16.52;13.00;;;;;;;;;;5048667;28;20025;-81
2023/07/10 00:31:21;;;;;;;22.98;12.70;;;;;;;;;;5028377;28;20124;-79
2023/07/10 00:33:47;;;;;;;22.83;13.13;;;;;;;;;;5051592;28;21423;-78
2023/07/10 00:36:33;;;;;;;24.23;13.20;;;;;;;;;;5049077;28;20041;-80
2023/07/10 00:39:02;;;;;;;19.08;11.82;;;;;;;;;;5028446;28;20060;-82
2023/07/10 00:41:32;;;;;;;24.33;12.07;;;;;;;;;;5033580;28;20025;-82
2023/07/10 00:44:03;;;;;;;20.05;13.23;;;;;;;;;;5032172;28;20017;-83
2023/07/10 00:46:35;;;;;;;16.58;12.38;;;;;;;;;;5034531;28;20029;-81
2023/07/10 00:49:04;;;;;;;16.73;11.10;;;;;;;;;;5032261;28;20083;-82
2023/07/10 00:51:36;;;;;;;18.50;13.82;;;;;;;;;;5046853;28;20131;-82
2023/07/10 00:54:03;;;;;;;16.90;12.82;;;;;;;;;;5029908;28;20057;-81
2023/07/10 00:56:32;;;;;;;18.58;13.65;;;;;;;;;;5030017;28;20025;-82
2023/07/10 00:58:58;;;;;;;18.35;13.63;;;;;;;;;;5038530;28;20060;-78
2023/07/10 01:01:27;;;;;;;18.63;13.30;;;;;;;;;;5035451;28;20026;-77
2023/07/10 01:03:57;;;;;;;24.48;14.15;;;;;;;;;;5029222;28;20029;-80
2023/07/10 01:06:23;;;;;;;23.55;15.23;;;;;;;;;;5034156;28;20087;-78
2023/07/10 01:09:03;;;;;;;23.83;13.20;;;;;;;;;;5040131;28;20033;-76
2023/07/10 01:11:29;;;;;;;20.77;12.38;;;;;;;;;;5040609;28;20060;-79
2023/07/10 01:13:56;;;;;;;24.38;13.35;;;;;;;;;;5033874;28;20041;-81
2023/07/10 01:16:23;;;;;;;24.27;15.90;;;;;;;;;;5030499;28;20359;-79
2023/07/10 01:18:49;;;;;;;28.33;16.38;;;;;;;;;;5035214;28;20025;-82
2023/07/10 01:21:32;;;;;;;25.13;16.17;;;;;;;;;;5033391;28;20029;-80
2023/07/10 01:24:01;;;;;;;25.75;16.10;;;;;;;;;;5033406;28;20088;-82
2023/07/10 01:26:28;;;;;;;29.63;15.48;;;;;;;;;;5049557;28;20037;-79
2023/07/10 01:28:54;;;;;;;27.77;15.73;;;;;;;;;;5035084;28;20041;-80
2023/07/10 01:31:21;;;;;;;22.75;15.35;;;;;;;;;;5031266;28;20759;-80
2023/07/10 01:33:50;;;;;;;26.30;15.63;;;;;;;;;;5028757;28;20044;-82
2023/07/10 01:36:20;;;;;;;25.35;15.88;;;;;;;;;;5031400;28;20442;-81
2023/07/10 01:38:56;;;;;;;25.20;14.82;;;;;;;;;;5031740;28;20029;-79
2023/07/10 01:41:48;;;;;;;29.75;14.98;;;;;;;;;;5032381;28;20037;-82
2023/07/10 01:44:28;;;;;;;25.75;15.55;;;;;;;;;;5029462;28;20052;-84
2023/07/10 01:46:57;;;;;;;25.50;17.52;;;;;;;;;;5031813;28;20052;-81
2023/07/10 01:49:28;;;;;;;29.10;18.17;;;;;;;;;;5032675;28;20037;-81
2023/07/10 01:51:55;;;;;;;27.08;18.85;;;;;;;;;;5030976;28;20059;-78
2023/07/10 01:54:21;;;;;;;27.17;17.02;;;;;;;;;;5050736;28;20505;-78
2023/07/10 01:56:47;;;;;;;29.10;19.15;;;;;;;;;;5058692;28;20029;-80
2023/07/10 01:59:13;;;;;;;31.33;18.05;;;;;;;;;;5040380;28;20456;-78
2023/07/10 02:01:42;;;;;;;30.83;18.50;;;;;;;;;;5030359;28;20022;-79
2023/07/10 02:04:10;;;;;;;33.65;18.85;;;;;;;;;;5049677;28;20044;-78
2023/07/10 02:06:37;;;;;;;26.65;18.15;;;;;;;;;;5029173;28;20037;-79
2023/07/10 02:09:04;;;;;;;40.33;19.48;;;;;;;;;;5040354;28;20026;-78
2023/07/10 02:11:30;;;;;;;32.88;19.35;;;;;;;;;;5052035;28;20030;-80
2023/07/10 02:13:56;;;;;;;28.75;19.50;;;;;;;;;;5033618;28;20087;-80
2023/07/10 02:16:22;;;;;;;33.42;19.52;;;;;;;;;;5031340;28;20096;-80
2023/07/10 02:18:48;;;;;;;34.10;21.02;;;;;;;;;;5031670;28;20025;-78
2023/07/10 02:21:14;;;;;;;31.33;20.23;;;;;;;;;;5038178;28;20025;-79
2023/07/10 02:23:47;;;;;;;27.65;20.67;;;;;;;;;;5059515;28;20030;-77
2023/07/10 02:26:13;;;;;;;31.13;20.13;;;;;;;;;;5041651;28;20029;-77
2023/07/10 02:28:39;;;;;;;29.23;19.52;;;;;;;;;;5049967;28;20056;-78
2023/07/10 02:31:06;;;;;;;32.05;21.35;;;;;;;;;;5047146;28;20056;-76
2023/07/10 02:33:34;;;;;;;31.42;21.67;;;;;;;;;;5046464;28;20045;-77
2023/07/10 02:36:01;;;;;;;34.65;21.73;;;;;;;;;;5052377;28;20037;-76
2023/07/10 02:38:27;;;;;;;29.10;21.15;;;;;;;;;;5068344;28;20041;-76
2023/07/10 02:40:55;;;;;;;28.98;21.33;;;;;;;;;;5069054;28;20025;-76
2023/07/10 02:43:21;;;;;;;31.58;21.73;;;;;;;;;;5051749;28;20030;-76
2023/07/10 02:45:50;;;;;;;30.30;21.42;;;;;;;;;;5051060;28;20038;-76
2023/07/10 02:48:18;;;;;;;35.78;21.95;;;;;;;;;;5048314;28;20010;-76
2023/07/10 02:50:44;;;;;;;36.00;20.83;;;;;;;;;;5047100;28;20036;-78
2023/07/10 02:53:13;;;;;;;34.70;22.63;;;;;;;;;;5067232;28;20025;-75
2023/07/10 02:55:39;;;;;;;31.42;21.25;;;;;;;;;;5051947;28;20033;-75
2023/07/10 02:58:05;;;;;;;35.15;23.23;;;;;;;;;;5050800;28;20040;-76
2023/07/10 03:00:31;;;;;;;36.65;24.95;;;;;;;;;;5049020;28;20029;-78
2023/07/10 03:02:57;;;;;;;37.40;27.38;;;;;;;;;;5050046;28;20049;-76
2023/07/10 03:05:26;;;;;;;36.60;28.83;;;;;;;;;;5047048;28;20030;-77
2023/07/10 03:07:52;;;;;;;42.67;27.42;;;;;;;;;;5050973;28;20024;-75
2023/07/10 03:10:21;;;;;;;38.35;26.48;;;;;;;;;;5067745;28;20029;-77
2023/07/10 03:12:50;;;;;;;35.03;27.08;;;;;;;;;;5047646;28;20037;-77
2023/07/10 03:15:16;;;;;;;35.00;24.77;;;;;;;;;;5045871;28;20049;-77
2023/07/10 03:17:42;;;;;;;31.73;23.85;;;;;;;;;;5066852;28;20038;-76
2023/07/10 03:20:08;;;;;;;32.53;24.75;;;;;;;;;;5047062;28;20035;-78
2023/07/10 03:22:37;;;;;;;35.45;24.55;;;;;;;;;;5049021;28;20029;-77
2023/07/10 03:25:03;;;;;;;39.90;24.55;;;;;;;;;;5046708;28;20497;-77
2023/07/10 03:27:29;;;;;;;33.47;23.00;;;;;;;;;;5047060;28;20018;-78
2023/07/10 03:29:55;;;;;;;29.63;21.67;;;;;;;;;;5049120;28;20037;-76
2023/07/10 03:32:24;;;;;;;33.08;21.75;;;;;;;;;;5065696;28;20093;-76
2023/07/10 03:34:50;;;;;;;30.92;20.88;;;;;;;;;;5048091;28;20033;-77
2023/07/10 03:37:16;;;;;;;27.15;18.30;;;;;;;;;;5049651;28;20017;-77
2023/07/10 03:39:48;;;;;;;30.00;19.77;;;;;;;;;;5065267;28;21323;-78
2023/07/10 03:42:14;;;;;;;24.40;18.17;;;;;;;;;;5048124;28;20017;-78
2023/07/10 03:44:40;;;;;;;26.88;19.08;;;;;;;;;;5049487;28;20029;-76
2023/07/10 03:47:06;;;;;;;25.50;17.20;;;;;;;;;;5047600;28;20021;-75
2023/07/10 03:49:33;;;;;;;29.23;18.13;;;;;;;;;;5063492;28;20043;-76
2023/07/10 03:51:59;;;;;;;24.63;17.55;;;;;;;;;;5044365;28;20033;-76
2023/07/10 03:54:25;;;;;;;27.02;18.58;;;;;;;;;;5045648;28;20049;-76
2023/07/10 03:56:51;;;;;;;27.42;18.27;;;;;;;;;;5046353;28;20041;-77
2023/07/10 03:59:18;;;;;;;26.90;17.52;;;;;;;;;;5047270;28;20056;-74
2023/07/10 04:01:44;;;;;;;24.33;17.10;;;;;;;;;;5046676;28;20025;-77
2023/07/10 04:04:10;;;;;;;24.02;17.55;;;;;;;;;;5047086;28;20037;-76
2023/07/10 04:06:36;;;;;;;25.25;16.70;;;;;;;;;;5046652;28;20021;-76
2023/07/10 04:09:02;;;;;;;22.27;16.58;;;;;;;;;;5042821;28;20022;-76
2023/07/10 04:11:29;;;;;;;25.05;16.58;;;;;;;;;;5047543;28;20037;-76
2023/07/10 04:13:55;;;;;;;27.35;16.13;;;;;;;;;;5062948;28;20050;-76
2023/07/10 04:16:30;;;;;;;27.73;18.00;;;;;;;;;;5048537;28;20022;-75
2023/07/10 04:18:57;;;;;;;29.83;19.58;;;;;;;;;;5048162;28;20026;-80
2023/07/10 04:21:25;;;;;;;29.27;18.25;;;;;;;;;;5047754;28;20025;-76
2023/07/10 04:23:51;;;;;;;26.17;18.52;;;;;;;;;;5049270;28;20036;-77
2023/07/10 04:26:19;;;;;;;32.35;18.55;;;;;;;;;;5045711;28;20029;-76
2023/07/10 04:28:46;;;;;;;29.45;18.83;;;;;;;;;;5046937;28;20030;-79
2023/07/10 04:31:12;;;;;;;38.92;21.00;;;;;;;;;;5062718;28;20030;-75
2023/07/10 04:33:39;;;;;;;33.67;20.05;;;;;;;;;;5046938;28;20041;-76
2023/07/10 04:36:05;;;;;;;38.00;20.25;;;;;;;;;;5046094;28;20010;-75
2023/07/10 04:38:31;;;;;;;38.33;21.08;;;;;;;;;;5043967;28;20071;-75
2023/07/10 04:41:00;;;;;;;35.58;21.67;;;;;;;;;;5047740;28;20056;-76
2023/07/10 04:43:27;;;;;;;35.53;21.17;;;;;;;;;;5048547;28;20021;-76
2023/07/10 04:45:57;;;;;;;37.92;21.05;;;;;;;;;;5064852;28;20037;-78
2023/07/10 04:48:23;;;;;;;31.63;21.13;;;;;;;;;;5065316;28;20053;-76
2023/07/10 04:50:54;;;;;;;30.70;20.80;;;;;;;;;;5061855;28;20057;-76
2023/07/10 04:53:21;;;;;;;42.63;21.15;;;;;;;;;;5045472;28;20033;-76
2023/07/10 04:55:51;;;;;;;35.28;22.45;;;;;;;;;;5048146;28;20034;-75
2023/07/10 04:58:17;;;;;;;30.40;21.25;;;;;;;;;;5046412;28;20045;-75
2023/07/10 05:00:43;;;;;;;34.67;22.70;;;;;;;;;;5046772;28;20033;-75
2023/07/10 05:03:13;;;;;;;35.92;19.83;;;;;;;;;;5045705;28;20018;-77
2023/07/10 05:05:39;;;;;;;40.17;21.50;;;;;;;;;;5046069;28;20072;-76
2023/07/10 05:08:05;;;;;;;32.08;19.85;;;;;;;;;;5064961;28;20021;-78
2023/07/10 05:10:31;;;;;;;29.25;18.88;;;;;;;;;;5045735;28;20022;-75
2023/07/10 05:12:57;;;;;;;30.83;18.17;;;;;;;;;;5064297;28;20010;-76
2023/07/10 05:15:23;;;;;;;24.42;16.42;;;;;;;;;;5049664;28;20053;-78
2023/07/10 05:17:49;;;;;;;23.15;14.90;;;;;;;;;;5049212;28;20029;-77
2023/07/10 05:20:15;;;;;;;22.92;13.30;;;;;;;;;;5049573;28;20033;-74
2023/07/10 05:22:41;;;;;;;21.98;13.52;;;;;;;;;;5049479;28;20121;-77
2023/07/10 05:25:08;;;;;;;20.00;11.98;;;;;;;;;;5048594;28;20028;-77
2023/07/10 05:27:34;;;;;;;21.92;11.20;;;;;;;;;;5049234;28;20056;-76
2023/07/10 05:30:00;;;;;;;18.55;9.02;;;;;;;;;;5050151;28;20080;-77
2023/07/10 05:32:26;;;;;;;21.42;8.25;;;;;;;;;;5064333;28;20052;-76
2023/07/10 05:34:52;;;;;;;16.75;9.60;;;;;;;;;;5051576;28;20038;-77
2023/07/10 05:37:21;;;;;;;26.65;8.05;;;;;;;;;;5068798;28;20090;-78
2023/07/10 05:39:47;;;;;;;16.60;8.00;;;;;;;;;;5050630;28;20024;-76
2023/07/10 05:42:13;;;;;;;21.27;8.43;;;;;;;;;;5048741;28;20017;-77
2023/07/10 05:44:39;;;;;;;22.05;8.50;;;;;;;;;;5048929;28;20068;-79
2023/07/10 05:47:05;;;;;;;19.50;7.93;;;;;;;;;;5051527;28;20033;-77
2023/07/10 05:49:31;;;;;;;18.00;7.70;;;;;;;;;;5048940;28;20045;-75
2023/07/10 05:51:57;;;;;;;14.88;7.75;;;;;;;;;;5064882;28;20024;-76
2023/07/10 05:54:23;;;;;;;16.92;8.00;;;;;;;;;;5069278;28;20029;-75
2023/07/10 05:56:49;;;;;;;15.27;8.27;;;;;;;;;;5052565;28;20038;-78
2023/07/10 05:59:16;;;;;;;20.30;8.50;;;;;;;;;;5047387;28;20042;-75
2023/07/10 06:01:42;;;;;;;19.23;8.48;;;;;;;;;;5064662;28;20022;-77
2023/07/10 06:04:08;;;;;;;19.38;9.70;;;;;;;;;;5050027;28;20125;-77
2023/07/10 06:06:34;;;;;;;16.27;8.02;;;;;;;;;;5048363;28;20090;-76
2023/07/10 06:09:00;;;;;;;16.08;8.35;;;;;;;;;;5048923;28;20055;-79
2023/07/10 06:11:26;;;;;;;21.20;9.00;;;;;;;;;;5050484;28;20045;-76
2023/07/10 06:13:52;;;;;;;26.60;9.02;;;;;;;;;;5067716;28;20092;-79
2023/07/10 06:16:18;;;;;;;15.15;8.55;;;;;;;;;;5069652;23;20129;-76
2023/07/10 06:18:44;;;;;;;16.45;7.22;;;;;;;;;;5060396;28;20033;-76
2023/07/10 06:21:11;;;;;;;15.50;9.00;;;;;;;;;;5067039;28;20044;-77
2023/07/10 06:23:37;;;;;;;15.60;8.25;;;;;;;;;;5063057;28;20044;-75
2023/07/10 06:26:04;;;;;;;20.20;9.18;;;;;;;;;;5062538;28;20092;-76
2023/07/10 06:28:30;;;;;;;19.58;9.13;;;;;;;;;;5061610;28;20038;-76
2023/07/10 06:30:58;;;;;;;19.75;8.77;;;;;;;;;;5060305;28;20044;-79
2023/07/10 06:33:24;;;;;;;21.75;8.68;;;;;;;;;;5063658;28;20021;-76
2023/07/10 06:35:50;;;;;;;21.45;8.45;;;;;;;;;;5070683;28;20009;-75
2023/07/10 06:38:16;;;;;;;21.50;10.23;;;;;;;;;;5065650;28;20166;-76
2023/07/10 06:40:43;;;;;;;18.52;9.40;;;;;;;;;;5062606;28;20044;-75
2023/07/10 06:43:09;;;;;;;18.00;9.15;;;;;;;;;;5058424;28;20156;-76
2023/07/10 06:45:35;;;;;;;20.63;9.55;;;;;;;;;;5064648;28;20161;-75
2023/07/10 06:48:01;;;;;;;16.67;8.70;;;;;;;;;;5062980;28;20040;-76
2023/07/10 06:50:27;;;;;;;17.98;8.52;;;;;;;;;;5062107;28;20052;-77
2023/07/10 06:52:53;;;;;;;19.13;8.10;;;;;;;;;;5064269;28;20085;-77
2023/07/10 06:55:19;;;;;;;15.63;8.07;;;;;;;;;;5065508;28;20466;-75
2023/07/10 06:57:45;;;;;;;13.98;8.43;;;;;;;;;;5059799;28;20089;-77
2023/07/10 07:00:13;;;;;;;14.80;8.05;;;;;;;;;;5063043;28;20025;-75
2023/07/10 07:02:39;;;;;;;15.48;8.00;;;;;;;;;;5063810;28;20021;-76
2023/07/10 07:05:06;;;;;;;21.23;8.48;;;;;;;;;;5062827;28;20017;-76
2023/07/10 07:07:32;;;;;;;21.15;8.23;;;;;;;;;;5065298;28;20048;-77
2023/07/10 07:09:58;;;;;;;16.83;8.40;;;;;;;;;;5065641;28;20024;-77
2023/07/10 07:12:25;;;;;;;14.82;7.45;;;;;;;;;;5059540;28;20022;-75
2023/07/10 07:14:51;;;;;;;18.20;7.57;;;;;;;;;;5063994;28;20025;-76
2023/07/10 07:17:17;;;;;;;12.25;6.95;;;;;;;;;;5064600;28;20025;-75
2023/07/10 07:19:43;;;;;;;18.60;7.32;;;;;;;;;;5080633;28;20017;-76
2023/07/10 07:22:09;;;;;;;12.45;6.35;;;;;;;;;;5069587;28;20025;-76
2023/07/10 07:24:36;;;;;;;13.77;6.07;;;;;;;;;;5060822;28;20048;-77
2023/07/10 07:27:03;;;;;;;10.32;5.30;;;;;;;;;;5062661;28;20030;-75
2023/07/10 07:29:29;;;;;;;14.60;5.18;;;;;;;;;;5062799;28;20045;-75
2023/07/10 07:31:55;;;;;;;13.85;6.47;;;;;;;;;;5066797;28;20040;-75
2023/07/10 07:34:21;;;;;;;19.05;6.15;;;;;;;;;;5063215;28;20021;-77
2023/07/10 07:36:50;;;;;;;12.05;5.65;;;;;;;;;;5064868;28;20036;-76
2023/07/10 07:39:17;;;;;;;11.60;6.50;;;;;;;;;;5063941;28;20316;-76
2023/07/10 07:41:44;;;;;;;15.38;6.82;;;;;;;;;;5069657;28;20053;-77
2023/07/10 07:44:10;;;;;;;16.90;7.07;;;;;;;;;;5063215;28;20081;-76
2023/07/10 07:46:36;;;;;;;14.27;6.13;;;;;;;;;;5060268;28;20037;-75
2023/07/10 07:49:02;;;;;;;20.00;7.30;;;;;;;;;;5063100;28;20037;-76
2023/07/10 07:51:29;;;;;;;14.93;6.55;;;;;;;;;;5060639;28;20009;-77
2023/07/10 07:54:03;;;;;;;12.48;6.25;;;;;;;;;;5062247;28;20040;-78
2023/07/10 07:56:29;;;;;;;13.35;6.75;;;;;;;;;;5062257;28;20036;-75
2023/07/10 07:58:55;;;;;;;14.00;6.78;;;;;;;;;;5066284;28;20020;-76
2023/07/10 08:01:21;;;;;;;11.82;5.70;;;;;;;;;;5063880;28;20025;-76
2023/07/10 08:03:47;;;;;;;12.13;5.88;;;;;;;;;;5058961;28;20114;-75
2023/07/10 08:06:13;;;;;;;11.00;5.63;;;;;;;;;;5066083;28;20021;-76
2023/07/10 08:08:39;;;;;;;13.82;5.10;;;;;;;;;;5062729;28;20037;-76
2023/07/10 08:11:06;;;;;;;15.40;5.63;;;;;;;;;;5064326;28;20036;-75
2023/07/10 08:13:32;;;;;;;12.10;5.43;;;;;;;;;;5063107;28;20048;-75
2023/07/10 08:15:58;;;;;;;12.15;4.95;;;;;;;;;;5064118;28;20046;-78
2023/07/10 08:18:24;;;;;;;14.45;4.65;;;;;;;;;;5059908;28;20065;-76
2023/07/10 08:20:51;;;;;;;10.95;4.20;;;;;;;;;;5060382;28;20029;-75
2023/07/10 08:23:17;;;;;;;6.88;3.55;;;;;;;;;;5062858;28;20033;-76
2023/07/10 08:25:43;;;;;;;6.95;4.00;;;;;;;;;;5058968;28;20037;-77
2023/07/10 08:28:09;;;;;;;8.70;3.85;;;;;;;;;;5059379;28;20036;-79
2023/07/10 08:30:35;;;;;;;6.80;3.35;;;;;;;;;;5049869;28;20029;-78
2023/07/10 08:33:01;;;;;;;7.97;3.55;;;;;;;;;;5061015;28;20086;-78
2023/07/10 08:35:27;;;;;;;7.35;2.63;;;;;;;;;;5045304;28;20037;-79
2023/07/10 08:37:53;;;;;;;6.38;2.03;;;;;;;;;;5056817;28;20025;-76
2023/07/10 08:40:25;;;;;;;10.90;2.20;;;;;;;;;;5054409;28;20033;-79
2023/07/10 08:42:51;;;;;;;5.45;2.13;;;;;;;;;;5045716;28;20500;-79
2023/07/10 08:45:23;;;;;;;7.55;3.00;;;;;;;;;;5043683;28;20037;-78
2023/07/10 08:47:49;;;;;;;;;;;;;;;;;;5042528;28;20022;-80
2023/07/10 08:50:23;;;;;;;4.68;1.95;;;;;;;;;;5047274;28;20252;-78
2023/07/10 08:52:49;;;;;;;5.88;2.08;;;;;;;;;;5052546;28;20025;-78
2023/07/10 08:55:18;;;;;;;8.27;3.33;;;;;;;;;;5047833;28;20475;-78
2023/07/10 08:57:48;;;;;;;7.82;3.22;;;;;;;;;;5059038;28;20017;-76
2023/07/10 09:00:15;;;;;;;6.68;2.95;;;;;;;;;;5062057;28;20029;-78
2023/07/10 09:02:48;;;;;;;8.02;3.10;;;;;;;;;;5068203;28;20025;-79
2023/07/10 09:05:19;;;;;;;7.88;2.78;;;;;;;;;;5053887;28;20501;-78
2023/07/10 09:07:45;;;;;;;8.52;3.22;;;;;;;;;;5053980;28;20055;-78
2023/07/10 09:10:26;;;;;;;3.88;2.67;;;;;;;;;;5056325;28;20036;-76
2023/07/10 09:12:54;;;;;;;7.55;3.00;;;;;;;;;;5061284;28;20034;-77
2023/07/10 09:15:27;;;;;;;5.03;2.40;;;;;;;;;;5045726;28;20043;-81
2023/07/10 09:18:00;;;;;;;8.00;3.03;;;;;;;;;;5044907;28;20087;-80
2023/07/10 09:20:26;;;;;;;8.15;2.70;;;;;;;;;;5046736;28;20039;-78
2023/07/10 09:22:55;;;;;;;7.47;2.90;;;;;;;;;;5055727;28;20092;-79
2023/07/10 09:25:21;;;;;;;11.27;2.50;;;;;;;;;;5055658;28;20033;-82
2023/07/10 09:27:48;;;;;;;3.50;1.80;;;;;;;;;;5054931;28;20126;-80
2023/07/10 09:30:17;;;;;;;6.65;2.20;;;;;;;;;;5049581;28;20033;-80
2023/07/10 09:32:43;;;;;;;4.18;1.30;;;;;;;;;;5051832;28;20080;-81
2023/07/10 09:35:16;;;;;;;3.50;1.27;;;;;;;;;;5043289;28;20025;-81
2023/07/10 09:37:42;;;;;;;2.78;1.30;;;;;;;;;;5045830;28;20021;-81
2023/07/10 09:40:27;;;;;;;3.22;0.90;;;;;;;;;;5043606;28;20072;-81
2023/07/10 09:42:53;;;;;;;4.90;1.13;;;;;;;;;;5044941;28;20055;-82
2023/07/10 09:45:19;;;;;;;1.90;1.20;;;;;;;;;;5043677;28;21762;-82
2023/07/10 09:47:50;;;;;;;1.80;0.70;;;;;;;;;;5050034;28;20100;-81
2023/07/10 09:50:18;;;;;;;6.65;1.13;;;;;;;;;;5046466;28;20029;-82
2023/07/10 09:52:51;;;;;;;2.03;0.90;;;;;;;;;;5046622;28;20040;-83
2023/07/10 09:55:17;;;;;;;5.00;1.23;;;;;;;;;;5044870;28;20041;-83
2023/07/10 09:57:48;;;;;;;3.75;1.00;;;;;;;;;;5045574;28;20036;-84
2023/07/10 10:00:18;;;;;;;2.15;1.02;;;;;;;;;;5044506;28;20025;-80
2023/07/10 10:02:49;;;;;;;3.65;0.93;;;;;;;;;;5046760;28;20032;-83
2023/07/10 10:05:19;;;;;;;3.40;1.00;;;;;;;;;;5046999;28;20028;-83
2023/07/10 10:07:46;;;;;;;3.47;1.23;;;;;;;;;;5047607;28;20100;-84
2023/07/10 10:10:24;;;;;;;2.63;1.23;;;;;;;;;;5049032;28;20029;-81
2023/07/10 10:12:56;;;;;;;2.28;0.80;;;;;;;;;;5040062;28;20063;-83
2023/07/10 10:15:22;;;;;;;;;;;;;;;;;;5045503;28;20029;-83
2023/07/10 10:17:52;;;;;;;3.97;1.10;;;;;;;;;;5044639;28;19913;-83
2023/07/10 10:20:24;;;;;;;4.57;1.30;;;;;;;;;;5038361;28;20379;-79
2023/07/10 10:22:50;;;;;;;3.33;1.20;;;;;;;;;;5045153;28;20017;-82
2023/07/10 10:25:20;;;;;;;3.17;1.20;;;;;;;;;;5043909;28;20025;-81
2023/07/10 10:27:52;;;;;;;4.57;1.48;;;;;;;;;;5045184;28;20052;-79
2023/07/10 10:30:33;;;;;;;2.42;1.15;;;;;;;;;;5039803;28;20033;-81
2023/07/10 10:32:59;;;;;;;5.03;1.37;;;;;;;;;;5043712;28;20090;-82
2023/07/10 10:35:25;;;;;;;4.68;1.70;;;;;;;;;;5043328;28;20287;-82
2023/07/10 10:37:51;;;;;;;3.05;1.27;;;;;;;;;;5043942;28;20029;-82
2023/07/10 10:40:24;;;;;;;6.78;1.40;;;;;;;;;;5043837;28;20035;-83
2023/07/10 10:42:53;;;;;;;2.80;1.08;;;;;;;;;;5042916;28;20104;-80
2023/07/10 10:45:28;;;;;;;2.92;1.10;;;;;;;;;;5046488;28;20071;-80
2023/07/10 10:48:00;;;;;;;10.07;1.30;;;;;;;;;;5042534;28;20543;-82
2023/07/10 10:50:26;;;;;;;3.97;1.00;;;;;;;;;;5045051;28;20030;-82
2023/07/10 10:53:10;;;;;;;4.85;1.52;;;;;;;;;;5048641;28;20070;-81
2023/07/10 10:56:06;;;;;;;4.65;1.60;;;;;;;;;;5047117;28;21595;-82
2023/07/10 10:58:37;;;;;;;3.22;1.40;;;;;;;;;;5039996;28;20575;-81
2023/07/10 11:01:06;;;;;;;2.47;1.20;;;;;;;;;;5040724;28;20040;-83
2023/07/10 11:03:35;;;;;;;1.98;1.13;;;;;;;;;;5048412;28;20044;-82
2023/07/10 11:06:21;;;;;;;11.93;1.65;;;;;;;;;;5044278;28;20092;-86
2023/07/10 11:08:49;;;;;;;3.05;1.10;;;;;;;;;;5044209;28;20125;-79
2023/07/10 11:11:22;;;;;;;2.92;1.08;;;;;;;;;;5043189;28;20029;-82
2023/07/10 11:13:49;;;;;;;6.05;1.58;;;;;;;;;;5042819;28;20092;-83
2023/07/10 11:16:15;;;;;;;3.88;1.10;;;;;;;;;;5043925;28;20083;-81
2023/07/10 11:18:41;;;;;;;4.28;1.33;;;;;;;;;;5038803;28;20028;-84
2023/07/10 11:21:07;;;;;;;5.10;1.70;;;;;;;;;;5043906;28;20033;-84
2023/07/10 11:23:36;;;;;;;4.15;1.30;;;;;;;;;;5043618;28;20040;-84
2023/07/10 11:26:02;;;;;;;3.85;1.10;;;;;;;;;;5043489;28;20692;-81
2023/07/10 11:28:29;;;;;;;6.07;1.33;;;;;;;;;;5044845;28;20022;-83
2023/07/10 11:31:14;;;;;;;3.85;1.45;;;;;;;;;;5049474;28;20025;-83
2023/07/10 11:33:42;;;;;;;1.98;1.02;;;;;;;;;;5045350;28;20434;-83
2023/07/10 11:36:29;;;;;;;3.33;1.30;;;;;;;;;;5045151;28;20035;-83
2023/07/10 11:39:09;;;;;;;2.85;1.15;;;;;;;;;;5042040;28;20021;-80
2023/07/10 11:41:37;;;;;;;6.60;1.60;;;;;;;;;;5043084;28;20021;-84
2023/07/10 11:44:26;;;;;;;8.68;1.27;;;;;;;;;;5044655;28;20021;-83
2023/07/10 11:47:01;;;;;;;5.00;1.00;;;;;;;;;;5038703;28;20044;-84
2023/07/10 11:49:27;;;;;;;5.72;1.63;;;;;;;;;;5044306;28;20029;-81
2023/07/10 11:52:25;;;;;;;7.38;1.77;;;;;;;;;;5043174;28;20032;-83
2023/07/10 11:54:52;;;;;;;3.78;1.23;;;;;;;;;;5043462;28;20021;-83
2023/07/10 11:57:22;;;;;;;4.22;1.10;;;;;;;;;;5042514;28;20124;-83
2023/07/10 11:59:48;;;;;;;4.72;1.60;;;;;;;;;;5040793;28;20021;-83
2023/07/10 12:02:34;;;;;;;8.43;1.50;;;;;;;;;;5042634;28;20033;-82
2023/07/10 12:05:12;;;;;;;5.70;1.73;;;;;;;;;;5040447;28;20044;-81
2023/07/10 12:07:38;;;;;;;6.45;2.08;;;;;;;;;;5044104;28;20033;-83
2023/07/10 12:10:10;;;;;;;2.20;1.15;;;;;;;;;;5041576;28;20029;-81
2023/07/10 12:12:36;;;;;;;9.85;1.38;;;;;;;;;;5040956;28;20017;-84
2023/07/10 12:15:03;;;;;;;2.38;0.95;;;;;;;;;;5041705;28;20052;-84
2023/07/10 12:17:31;;;;;;;7.03;1.40;;;;;;;;;;5044252;28;20124;-85
2023/07/10 12:19:59;;;;;;;2.83;1.20;;;;;;;;;;5040525;28;20021;-84
2023/07/10 12:22:29;;;;;;;8.07;1.50;;;;;;;;;;5042847;28;20026;-82
2023/07/10 12:25:00;;;;;;;5.78;1.50;;;;;;;;;;5043162;28;20029;-84
2023/07/10 12:27:35;;;;;;;2.92;1.30;;;;;;;;;;5046935;28;20080;-85
2023/07/10 12:30:02;;;;;;;2.65;0.98;;;;;;;;;;5045537;28;20106;-86
2023/07/10 12:32:31;;;;;;;3.70;1.33;;;;;;;;;;5046005;28;20036;-82
2023/07/10 12:34:57;;;;;;;5.32;1.67;;;;;;;;;;5045325;28;21001;-83
2023/07/10 12:37:23;;;;;;;11.48;1.30;;;;;;;;;;5044713;28;20095;-84
2023/07/10 12:39:52;;;;;;;2.70;1.17;;;;;;;;;;5044746;28;20016;-83
2023/07/10 12:42:25;;;;;;;10.52;1.73;;;;;;;;;;5045650;28;20025;-84
2023/07/10 12:44:51;;;;;;;9.13;1.30;;;;;;;;;;5047294;28;20033;-83
2023/07/10 12:47:17;;;;;;;4.28;1.33;;;;;;;;;;5047134;28;20082;-82
2023/07/10 12:49:54;;;;;;;6.53;1.50;;;;;;;;;;5047128;28;20064;-83
2023/07/10 12:52:26;;;;;;;5.18;0.90;;;;;;;;;;5044866;28;20082;-83
2023/07/10 12:54:53;;;;;;;4.78;0.90;;;;;;;;;;5041149;28;20024;-81
2023/07/10 12:57:23;;;;;;;5.65;1.35;;;;;;;;;;5040672;28;20032;-81
2023/07/10 12:59:54;;;;;;;3.92;1.23;;;;;;;;;;5039668;28;20053;-82
2023/07/10 13:02:30;;;;;;;3.78;1.08;;;;;;;;;;5046021;28;20025;-82
2023/07/10 13:05:00;;;;;;;7.28;1.75;;;;;;;;;;5045566;28;20029;-83
2023/07/10 13:07:33;;;;;;;4.88;0.95;;;;;;;;;;5047244;28;20033;-81
2023/07/10 13:10:20;;;;;;;12.75;1.75;;;;;;;;;;5047206;28;20041;-82
2023/07/10 13:12:50;;;;;;;11.70;1.80;;;;;;;;;;5045135;28;20025;-82
2023/07/10 13:15:17;;;;;;;5.28;1.40;;;;;;;;;;5045132;28;20033;-82
2023/07/10 13:17:53;;;;;;;12.85;1.67;;;;;;;;;;5044587;28;20029;-83
2023/07/10 13:20:21;;;;;;;4.88;1.38;;;;;;;;;;5045830;28;21811;-83
2023/07/10 13:22:47;;;;;;;17.98;1.38;;;;;;;;;;5045377;28;20033;-81
2023/07/10 13:25:13;;;;;;;7.55;1.00;;;;;;;;;;5045244;28;20041;-83
2023/07/10 13:27:39;;;;;;;13.75;1.58;;;;;;;;;;5047821;28;20457;-82
2023/07/10 13:30:09;;;;;;;2.53;0.80;;;;;;;;;;5048677;28;20037;-82
2023/07/10 13:32:37;;;;;;;9.55;1.70;;;;;;;;;;5043667;28;20107;-80
2023/07/10 13:35:03;;;;;;;7.75;1.30;;;;;;;;;;5045342;28;20116;-84
2023/07/10 13:37:29;;;;;;;4.78;1.08;;;;;;;;;;5042346;28;20021;-83
2023/07/10 13:39:56;;;;;;;4.97;1.30;;;;;;;;;;5045133;28;21693;-84
2023/07/10 13:42:22;;;;;;;6.93;1.95;;;;;;;;;;5050217;28;20036;-82
2023/07/10 13:44:48;;;;;;;6.05;1.38;;;;;;;;;;5045994;28;20042;-81
2023/07/10 13:47:15;;;;;;;6.43;1.38;;;;;;;;;;5043099;28;20039;-82
2023/07/10 13:49:41;;;;;;;6.90;1.10;;;;;;;;;;5046668;28;20025;-83
2023/07/10 13:52:14;;;;;;;4.53;1.48;;;;;;;;;;5045702;28;20048;-82
2023/07/10 13:54:39;;;;;;;5.63;1.45;;;;;;;;;;5045756;28;20025;-81
2023/07/10 13:57:12;;;;;;;3.40;0.95;;;;;;;;;;5045786;28;20438;-82
2023/07/10 13:59:38;;;;;;;3.67;1.10;;;;;;;;;;5043975;28;20063;-85
2023/07/10 14:02:14;;;;;;;3.72;0.85;;;;;;;;;;5043718;28;20024;-84
2023/07/10 14:04:40;;;;;;;5.97;1.50;;;;;;;;;;5043130;28;20025;-83
2023/07/10 14:07:09;;;;;;;5.60;1.17;;;;;;;;;;5040012;28;20342;-83
2023/07/10 14:09:35;;;;;;;10.63;1.48;;;;;;;;;;5045642;28;20032;-85
2023/07/10 14:12:01;;;;;;;7.35;1.65;;;;;;;;;;5046191;28;20033;-82
2023/07/10 14:14:27;;;;;;;2.70;1.00;;;;;;;;;;5042425;28;20036;-82
2023/07/10 14:16:55;;;;;;;2.60;0.95;;;;;;;;;;5045637;28;20032;-82
2023/07/10 14:19:21;;;;;;;3.50;1.30;;;;;;;;;;5044370;28;20894;-82
2023/07/10 14:21:48;;;;;;;4.25;1.55;;;;;;;;;;5045273;28;20218;-81
2023/07/10 14:24:14;;;;;;;7.50;2.50;;;;;;;;;;5046349;28;20099;-85
2023/07/10 14:26:40;;;;;;;4.47;1.05;;;;;;;;;;5042976;28;20036;-81
2023/07/10 14:29:06;;;;;;;6.80;1.00;;;;;;;;;;5050231;28;20029;-83
2023/07/10 14:31:32;;;;;;;6.45;1.83;;;;;;;;;;5044152;28;20361;-82
2023/07/10 14:33:58;;;;;;;5.13;1.38;;;;;;;;;;5042298;28;20037;-81
2023/07/10 14:36:27;;;;;;;5.40;1.40;;;;;;;;;;5045377;28;20081;-84
2023/07/10 14:38:53;;;;;;;3.90;1.30;;;;;;;;;;5045294;28;20086;-82